Time;durP1;ratioP1;P1;durP2;ratioP2;P2;SDS_P1;SDS_P2;PMS_P1;PMS_P2;Temp;Humidity;BMP_temperature;BMP_pressure;BME280_temperature;BME280_humidity;BME280_pressure;Samples;Min_cycle;Max_cycle;Signal;HPM_P1;HPM_P2
2023/06/06 00:00:13;;;;;;;2.28;2.10;;;14.20;99.90;;;;;;5067212;28;20043;-76
2023/06/06 00:02:43;;;;;;;2.75;2.30;;;14.20;99.90;;;;;;5049472;28;20076;-75
2023/06/06 00:05:17;;;;;;;2.80;2.30;;;14.10;99.90;;;;;;5067041;28;20032;-77
2023/06/06 00:07:45;;;;;;;5.53;2.38;;;14.10;99.90;;;;;;5055712;28;20039;-75
2023/06/06 00:10:13;;;;;;;3.47;2.80;;;13.90;99.90;;;;;;5065465;28;20060;-75
2023/06/06 00:12:41;;;;;;;2.83;2.42;;;13.90;99.90;;;;;;5066776;28;20552;-75
2023/06/06 00:15:07;;;;;;;3.63;2.75;;;13.80;99.90;;;;;;5066205;28;20036;-74
2023/06/06 00:17:33;;;;;;;2.85;2.65;;;13.70;99.90;;;;;;5066186;28;20051;-75
2023/06/06 00:19:58;;;;;;;3.25;2.45;;;13.70;99.90;;;;;;5064847;28;20794;-75
2023/06/06 00:22:24;;;;;;;3.45;2.95;;;13.80;99.90;;;;;;5062636;28;20043;-74
2023/06/06 00:24:51;;;;;;;4.63;2.50;;;13.70;99.90;;;;;;5063276;28;20028;-75
2023/06/06 00:27:16;;;;;;;2.55;2.22;;;13.70;99.90;;;;;;5068692;28;20051;-75
2023/06/06 00:29:42;;;;;;;2.97;2.67;;;13.60;99.90;;;;;;5067427;28;20380;-74
2023/06/06 00:32:07;;;;;;;4.40;2.58;;;13.70;99.90;;;;;;5066014;28;20101;-75
2023/06/06 00:34:33;;;;;;;5.05;2.78;;;13.70;99.90;;;;;;5048834;28;20032;-75
2023/06/06 00:36:59;;;;;;;2.53;2.33;;;13.70;99.90;;;;;;5062249;28;20037;-76
2023/06/06 00:39:25;;;;;;;2.55;2.35;;;13.70;99.90;;;;;;5065498;28;20028;-75
2023/06/06 00:41:50;;;;;;;4.97;2.40;;;13.60;99.90;;;;;;5070174;28;20032;-75
2023/06/06 00:44:16;;;;;;;2.38;2.17;;;13.40;99.90;;;;;;5066485;28;20029;-76
2023/06/06 00:46:43;;;;;;;3.72;2.20;;;13.50;99.90;;;;;;5066324;28;20028;-75
2023/06/06 00:49:12;;;;;;;2.50;2.30;;;13.50;99.90;;;;;;5062637;28;20086;-74
2023/06/06 00:51:39;;;;;;;3.85;2.60;;;13.30;99.90;;;;;;5052947;28;20028;-74
2023/06/06 00:54:07;;;;;;;4.32;2.50;;;13.30;99.90;;;;;;5069238;28;20032;-76
2023/06/06 00:56:36;;;;;;;2.88;2.58;;;13.10;99.90;;;;;;5067834;28;20123;-75
2023/06/06 00:59:03;;;;;;;3.50;2.17;;;13.00;99.90;;;;;;5062278;28;20040;-75
2023/06/06 01:01:33;;;;;;;3.42;2.67;;;12.90;99.90;;;;;;5064423;28;20051;-76
2023/06/06 01:04:02;;;;;;;2.90;2.38;;;12.80;99.90;;;;;;5066027;28;20059;-77
2023/06/06 01:06:38;;;;;;;3.95;2.97;;;12.90;99.90;;;;;;5068123;28;20032;-76
2023/06/06 01:09:06;;;;;;;2.80;2.53;;;12.90;99.90;;;;;;5052693;28;20131;-79
2023/06/06 01:11:37;;;;;;;3.17;2.85;;;12.90;99.90;;;;;;5067441;28;20098;-77
2023/06/06 01:14:22;;;;;;;2.95;2.67;;;12.90;99.90;;;;;;5051348;28;20028;-77
2023/06/06 01:16:52;;;;;;;3.85;2.60;;;13.00;99.90;;;;;;5070532;28;20035;-76
2023/06/06 01:19:27;;;;;;;4.15;2.30;;;13.00;99.90;;;;;;5062991;28;20146;-76
2023/06/06 01:21:54;;;;;;;2.67;2.42;;;13.00;99.90;;;;;;5069102;28;20540;-76
2023/06/06 01:24:20;;;;;;;2.75;2.33;;;13.00;99.90;;;;;;5064892;28;20033;-77
2023/06/06 01:26:46;;;;;;;3.05;2.20;;;12.90;99.90;;;;;;5065175;28;20031;-76
2023/06/06 01:29:12;;;;;;;2.85;2.38;;;12.80;99.90;;;;;;5064875;28;20029;-77
2023/06/06 01:31:46;;;;;;;2.65;2.40;;;12.80;99.90;;;;;;5061509;28;20049;-76
2023/06/06 01:34:30;;;;;;;3.13;2.72;;;12.80;99.90;;;;;;5064121;28;20048;-76
2023/06/06 01:37:31;;;;;;;2.60;2.25;;;12.80;99.90;;;;;;5063329;28;20065;-75
2023/06/06 01:39:58;;;;;;;2.85;2.47;;;12.70;99.90;;;;;;5064087;28;20037;-76
2023/06/06 01:42:25;;;;;;;2.72;2.53;;;12.60;99.90;;;;;;5067841;28;20599;-76
2023/06/06 01:44:52;;;;;;;3.65;2.10;;;12.60;99.90;;;;;;5065643;28;20039;-76
2023/06/06 01:47:18;;;;;;;2.78;2.25;;;12.30;99.90;;;;;;5065655;28;20100;-76
2023/06/06 01:49:44;;;;;;;3.10;2.33;;;12.20;99.90;;;;;;5062754;28;20064;-78
2023/06/06 01:52:10;;;;;;;3.53;2.67;;;12.30;99.90;;;;;;5062056;28;20480;-76
2023/06/06 01:54:36;;;;;;;3.30;2.60;;;12.00;99.90;;;;;;5066855;28;20131;-76
2023/06/06 01:57:03;;;;;;;2.80;2.58;;;12.00;99.90;;;;;;5061078;28;20028;-75
2023/06/06 01:59:29;;;;;;;2.63;2.35;;;12.00;99.90;;;;;;5067327;28;20051;-76
2023/06/06 02:01:55;;;;;;;3.33;2.80;;;12.10;99.90;;;;;;5059514;28;20032;-76
2023/06/06 02:04:20;;;;;;;5.78;2.83;;;12.20;99.90;;;;;;5065233;28;20025;-75
2023/06/06 02:06:46;;;;;;;2.92;2.50;;;12.20;99.90;;;;;;5068968;28;20024;-75
2023/06/06 02:09:13;;;;;;;2.90;2.60;;;12.20;99.90;;;;;;5065885;28;20029;-75
2023/06/06 02:11:38;;;;;;;3.20;2.70;;;12.10;99.90;;;;;;5050088;28;20492;-76
2023/06/06 02:14:04;;;;;;;3.05;2.65;;;12.10;99.90;;;;;;5064027;28;20039;-75
2023/06/06 02:16:31;;;;;;;3.20;2.42;;;12.10;99.90;;;;;;5051499;28;20045;-75
2023/06/06 02:18:57;;;;;;;2.92;2.65;;;12.10;99.90;;;;;;5066399;28;20051;-75
2023/06/06 02:21:23;;;;;;;3.65;2.60;;;12.10;99.90;;;;;;5065081;28;20037;-75
2023/06/06 02:23:48;;;;;;;5.30;2.72;;;12.10;99.90;;;;;;5063159;28;20043;-75
2023/06/06 02:26:14;;;;;;;3.22;2.90;;;12.00;99.90;;;;;;5062459;28;20472;-75
2023/06/06 02:28:40;;;;;;;3.33;2.83;;;12.00;99.90;;;;;;5058424;28;20025;-75
2023/06/06 02:31:06;;;;;;;3.13;2.83;;;11.90;99.90;;;;;;5057999;28;20052;-75
2023/06/06 02:33:32;;;;;;;2.80;2.60;;;11.90;99.90;;;;;;5063522;28;20005;-75
2023/06/06 02:35:57;;;;;;;3.50;2.60;;;11.90;99.90;;;;;;5065055;28;20397;-75
2023/06/06 02:38:23;;;;;;;3.22;2.65;;;11.80;99.90;;;;;;5061956;28;20028;-75
2023/06/06 02:40:49;;;;;;;3.72;2.63;;;11.80;99.90;;;;;;5061338;28;20077;-75
2023/06/06 02:43:15;;;;;;;3.05;2.40;;;11.80;99.90;;;;;;5061943;28;20028;-74
2023/06/06 02:45:40;;;;;;;3.88;2.60;;;11.80;99.90;;;;;;5048215;28;20117;-77
2023/06/06 02:48:06;;;;;;;3.17;2.40;;;11.70;99.90;;;;;;5064872;28;20025;-75
2023/06/06 02:50:32;;;;;;;4.38;2.50;;;11.70;99.90;;;;;;5059028;28;20057;-75
2023/06/06 02:53:02;;;;;;;3.60;2.50;;;11.70;99.90;;;;;;5060846;28;20025;-74
2023/06/06 02:55:28;;;;;;;4.18;2.90;;;11.70;99.90;;;;;;5063390;28;20396;-74
2023/06/06 02:57:54;;;;;;;3.72;2.97;;;11.70;99.90;;;;;;5059166;28;20041;-75
2023/06/06 03:00:20;;;;;;;4.28;2.65;;;11.70;99.90;;;;;;5047460;28;20058;-76
2023/06/06 03:02:45;;;;;;;3.85;2.83;;;11.70;99.90;;;;;;5061503;28;20037;-75
2023/06/06 03:05:12;;;;;;;2.63;2.42;;;11.70;99.90;;;;;;5063432;28;20039;-74
2023/06/06 03:07:38;;;;;;;3.17;2.67;;;11.70;99.90;;;;;;5064881;28;20036;-75
2023/06/06 03:10:04;;;;;;;3.30;3.00;;;11.50;99.90;;;;;;5060191;28;20561;-75
2023/06/06 03:12:29;;;;;;;2.90;2.70;;;11.30;99.90;;;;;;5065002;28;20036;-75
2023/06/06 03:14:55;;;;;;;4.15;3.35;;;11.40;99.90;;;;;;5064387;28;20040;-75
2023/06/06 03:17:21;;;;;;;2.90;2.60;;;11.40;99.90;;;;;;5064840;28;20065;-76
2023/06/06 03:19:48;;;;;;;3.08;2.78;;;11.40;99.90;;;;;;5068387;28;20029;-76
2023/06/06 03:22:17;;;;;;;3.90;2.90;;;11.20;99.90;;;;;;5069001;28;20032;-75
2023/06/06 03:24:46;;;;;;;3.72;3.35;;;11.10;99.90;;;;;;5068563;28;20112;-75
2023/06/06 03:27:13;;;;;;;3.92;2.88;;;11.20;99.90;;;;;;5066122;28;20042;-76
2023/06/06 03:29:39;;;;;;;2.90;2.60;;;11.20;99.90;;;;;;5068295;28;20032;-75
2023/06/06 03:32:06;;;;;;;3.85;2.85;;;11.10;99.90;;;;;;5065137;28;20485;-75
2023/06/06 03:34:32;;;;;;;3.92;2.80;;;11.10;99.90;;;;;;5068822;28;20074;-75
2023/06/06 03:36:58;;;;;;;4.80;3.00;;;11.10;99.90;;;;;;5056801;28;20039;-75
2023/06/06 03:39:25;;;;;;;4.38;3.05;;;11.20;99.90;;;;;;5066623;28;20046;-76
2023/06/06 03:41:50;;;;;;;2.92;2.60;;;11.10;99.90;;;;;;5065878;28;20037;-75
2023/06/06 03:44:16;;;;;;;3.00;2.70;;;11.00;99.90;;;;;;5068773;28;20072;-75
2023/06/06 03:46:42;;;;;;;3.30;3.00;;;10.90;99.90;;;;;;5066659;28;20028;-75
2023/06/06 03:49:08;;;;;;;4.03;3.00;;;10.80;99.90;;;;;;5063272;28;20025;-75
2023/06/06 03:51:33;;;;;;;2.65;2.35;;;10.90;99.90;;;;;;5047981;28;20048;-75
2023/06/06 03:53:59;;;;;;;2.58;2.38;;;11.00;99.90;;;;;;5073207;28;20033;-75
2023/06/06 03:56:27;;;;;;;4.22;2.50;;;10.90;99.90;;;;;;5066401;28;20572;-75
2023/06/06 03:58:53;;;;;;;2.90;2.57;;;11.00;99.90;;;;;;5067238;28;20025;-75
2023/06/06 04:01:20;;;;;;;4.25;2.80;;;11.00;99.90;;;;;;5070603;28;20088;-75
2023/06/06 04:03:46;;;;;;;2.87;2.57;;;11.00;99.90;;;;;;5065445;28;20057;-75
2023/06/06 04:06:12;;;;;;;4.10;2.90;;;11.00;99.90;;;;;;5064644;28;20036;-75
2023/06/06 04:08:39;;;;;;;3.35;2.85;;;10.90;99.90;;;;;;5068903;28;20516;-75
2023/06/06 04:11:05;;;;;;;3.30;3.00;;;11.00;99.90;;;;;;5067142;28;20028;-75
2023/06/06 04:13:30;;;;;;;3.30;2.85;;;11.00;99.90;;;;;;5068579;28;20033;-74
2023/06/06 04:15:56;;;;;;;3.00;2.80;;;11.00;99.90;;;;;;5061647;28;20035;-75
2023/06/06 04:18:21;;;;;;;2.65;2.45;;;11.00;99.90;;;;;;5062632;28;20032;-75
2023/06/06 04:20:47;;;;;;;5.68;2.88;;;11.00;99.90;;;;;;5051104;28;20544;-75
2023/06/06 04:23:13;;;;;;;3.10;2.80;;;11.00;99.90;;;;;;5062816;28;20039;-75
2023/06/06 04:25:38;;;;;;;3.00;2.80;;;11.00;99.90;;;;;;5067418;28;20029;-75
2023/06/06 04:28:31;;;;;;;3.65;3.35;;;11.00;99.90;;;;;;5065581;28;20044;-75
2023/06/06 04:30:57;;;;;;;3.20;2.90;;;11.00;99.90;;;;;;5063699;28;20047;-76
2023/06/06 04:33:24;;;;;;;4.50;2.80;;;11.00;99.90;;;;;;5065097;28;20010;-75
2023/06/06 04:35:51;;;;;;;3.58;2.80;;;11.10;99.90;;;;;;5064416;28;20039;-75
2023/06/06 04:38:20;;;;;;;3.58;3.22;;;11.10;99.90;;;;;;5064524;28;20047;-76
2023/06/06 04:40:50;;;;;;;3.17;2.55;;;11.30;99.90;;;;;;5069166;28;20028;-76
2023/06/06 04:43:17;;;;;;;3.28;2.97;;;11.30;99.90;;;;;;5065951;28;20044;-75
2023/06/06 04:45:45;;;;;;;3.15;2.85;;;11.40;99.90;;;;;;5064041;28;20063;-75
2023/06/06 04:48:12;;;;;;;;;;;11.50;99.90;;;;;;5069823;28;20032;-75
2023/06/06 04:50:38;;;;;;;3.53;2.83;;;11.50;99.90;;;;;;5064772;28;19913;-75
2023/06/06 04:53:04;;;;;;;3.42;3.10;;;11.50;99.90;;;;;;5048889;28;20085;-75
2023/06/06 04:55:30;;;;;;;3.80;3.33;;;11.60;99.90;;;;;;5067249;28;20060;-75
2023/06/06 04:57:58;;;;;;;3.67;3.30;;;11.60;99.90;;;;;;5068055;28;20025;-74
2023/06/06 05:00:25;;;;;;;5.13;4.28;;;11.60;99.90;;;;;;5066912;28;20049;-75
2023/06/06 05:02:51;;;;;;;4.57;3.53;;;11.70;99.90;;;;;;5067477;28;20466;-76
2023/06/06 05:05:18;;;;;;;4.88;3.90;;;11.80;99.90;;;;;;5063922;28;20028;-75
2023/06/06 05:07:43;;;;;;;4.05;3.65;;;11.80;99.90;;;;;;5053388;28;20033;-75
2023/06/06 05:10:09;;;;;;;4.72;3.40;;;11.80;99.90;;;;;;5068104;28;20036;-75
2023/06/06 05:12:35;;;;;;;4.03;3.63;;;11.90;99.90;;;;;;5062222;28;20424;-75
2023/06/06 05:15:01;;;;;;;5.47;3.70;;;11.90;99.90;;;;;;5063791;28;20048;-75
2023/06/06 05:17:27;;;;;;;4.70;4.10;;;12.00;99.90;;;;;;5063290;28;20548;-74
2023/06/06 05:19:54;;;;;;;4.45;3.97;;;12.10;99.90;;;;;;5050027;28;20036;-75
2023/06/06 05:22:20;;;;;;;5.18;3.97;;;12.20;99.90;;;;;;5057508;28;20104;-75
2023/06/06 05:24:45;;;;;;;5.45;4.05;;;12.40;99.90;;;;;;5063627;28;20542;-74
2023/06/06 05:27:11;;;;;;;5.95;4.43;;;12.50;99.90;;;;;;5063365;28;20042;-74
2023/06/06 05:29:37;;;;;;;5.50;4.82;;;12.50;99.90;;;;;;5065069;28;20041;-75
2023/06/06 05:32:04;;;;;;;6.88;4.72;;;12.70;99.90;;;;;;5063687;28;20067;-74
2023/06/06 05:34:30;;;;;;;5.78;4.57;;;12.80;99.90;;;;;;5066540;28;20611;-74
2023/06/06 05:36:56;;;;;;;5.35;4.63;;;13.00;99.90;;;;;;5066168;28;20033;-75
2023/06/06 05:39:23;;;;;;;5.15;4.53;;;13.10;99.90;;;;;;5067039;28;20083;-76
2023/06/06 05:41:54;;;;;;;5.90;4.97;;;13.10;99.90;;;;;;5060933;28;20044;-75
2023/06/06 05:44:21;;;;;;;7.10;5.18;;;13.30;99.90;;;;;;5059467;28;20033;-76
2023/06/06 05:46:48;;;;;;;5.50;4.07;;;13.30;99.90;;;;;;5060966;28;20077;-75
2023/06/06 05:49:14;;;;;;;5.97;4.87;;;13.40;99.90;;;;;;5067334;28;20036;-75
2023/06/06 05:51:40;;;;;;;6.32;4.38;;;13.60;99.90;;;;;;5062997;28;20036;-75
2023/06/06 05:54:06;;;;;;;6.20;4.90;;;13.80;99.90;;;;;;5059513;28;20032;-77
2023/06/06 05:56:32;;;;;;;5.80;4.80;;;14.00;99.90;;;;;;5062259;28;20047;-74
2023/06/06 05:58:57;;;;;;;4.95;4.40;;;14.30;99.90;;;;;;5057195;28;20025;-75
2023/06/06 06:01:24;;;;;;;5.00;4.43;;;14.40;99.90;;;;;;5058718;28;20059;-75
2023/06/06 06:03:52;;;;;;;5.20;4.47;;;14.50;99.90;;;;;;5063859;28;20054;-75
2023/06/06 06:06:19;;;;;;;5.85;3.92;;;14.60;99.90;;;;;;5066259;28;20032;-75
2023/06/06 06:08:48;;;;;;;5.07;3.95;;;14.80;99.90;;;;;;5046233;28;20094;-75
2023/06/06 06:11:14;;;;;;;4.78;4.22;;;14.90;99.90;;;;;;5055787;28;20028;-75
2023/06/06 06:13:39;;;;;;;6.68;4.55;;;15.10;99.90;;;;;;5058977;28;20036;-75
2023/06/06 06:16:05;;;;;;;6.20;4.63;;;15.30;99.90;;;;;;5064388;28;20036;-75
2023/06/06 06:18:31;;;;;;;4.47;3.88;;;15.50;99.90;;;;;;5050524;28;20028;-75
2023/06/06 06:20:57;;;;;;;4.78;4.10;;;15.60;99.90;;;;;;5062030;28;20028;-75
2023/06/06 06:23:23;;;;;;;6.32;4.50;;;15.60;99.90;;;;;;5058407;28;20031;-75
2023/06/06 06:25:48;;;;;;;5.43;4.20;;;15.60;99.90;;;;;;5052387;28;20024;-75
2023/06/06 06:28:21;;;;;;;4.80;3.35;;;15.60;99.90;;;;;;5060581;28;20033;-76
2023/06/06 06:30:46;;;;;;;4.80;4.30;;;15.60;99.90;;;;;;5058628;28;20468;-75
2023/06/06 06:33:12;;;;;;;5.57;4.97;;;15.90;99.90;;;;;;5063246;28;20088;-74
2023/06/06 06:35:38;;;;;;;4.55;4.00;;;15.70;99.90;;;;;;5062170;28;20056;-76
2023/06/06 06:38:03;;;;;;;4.95;4.38;;;15.80;99.90;;;;;;5058252;28;20038;-76
2023/06/06 06:40:29;;;;;;;4.80;3.88;;;15.80;99.90;;;;;;5061620;28;20123;-77
2023/06/06 06:42:55;;;;;;;4.18;3.47;;;15.80;99.90;;;;;;5063735;28;20033;-76
2023/06/06 06:45:23;;;;;;;4.43;3.42;;;16.10;99.90;;;;;;5067406;28;20088;-75
2023/06/06 06:47:49;;;;;;;4.90;4.07;;;16.20;99.90;;;;;;5062688;28;20040;-76
2023/06/06 06:50:14;;;;;;;5.63;3.90;;;16.10;99.90;;;;;;5061163;28;20094;-78
2023/06/06 06:52:40;;;;;;;4.85;4.05;;;16.40;99.90;;;;;;5057561;28;20056;-74
2023/06/06 06:55:07;;;;;;;4.40;3.63;;;16.70;99.90;;;;;;5065274;28;20083;-75
2023/06/06 06:57:38;;;;;;;4.90;3.30;;;17.00;99.90;;;;;;5063054;28;20492;-75
2023/06/06 07:00:12;;;;;;;3.83;3.53;;;17.00;99.90;;;;;;5065344;28;20029;-76
2023/06/06 07:02:44;;;;;;;4.07;3.40;;;17.20;99.90;;;;;;5069062;28;20066;-75
2023/06/06 07:05:10;;;;;;;6.75;3.72;;;17.50;99.90;;;;;;5064794;28;20047;-75
2023/06/06 07:07:47;;;;;;;3.95;3.22;;;17.40;99.90;;;;;;5067778;28;20043;-75
2023/06/06 07:10:14;;;;;;;12.97;4.73;;;17.50;99.90;;;;;;5065966;28;20036;-76
2023/06/06 07:12:40;;;;;;;4.47;3.60;;;17.60;99.90;;;;;;5064709;28;20079;-75
2023/06/06 07:15:08;;;;;;;3.92;3.47;;;17.40;99.90;;;;;;5061746;28;20028;-75
2023/06/06 07:17:34;;;;;;;4.35;3.50;;;17.10;99.90;;;;;;5065755;28;20068;-74
2023/06/06 07:20:00;;;;;;;4.18;3.25;;;17.00;99.90;;;;;;5059840;28;20033;-75
2023/06/06 07:22:25;;;;;;;4.50;2.97;;;17.10;99.90;;;;;;5062901;28;20032;-74
2023/06/06 07:24:51;;;;;;;4.85;3.20;;;17.00;99.90;;;;;;5062865;28;20037;-75
2023/06/06 07:27:18;;;;;;;3.67;3.28;;;17.00;99.90;;;;;;5063643;28;20113;-75
2023/06/06 07:29:44;;;;;;;4.18;3.35;;;17.40;99.90;;;;;;5051962;28;20029;-75
2023/06/06 07:32:09;;;;;;;4.68;3.60;;;17.40;99.90;;;;;;5062332;28;20693;-75
2023/06/06 07:34:35;;;;;;;3.90;3.40;;;17.50;99.90;;;;;;5065914;28;20539;-74
2023/06/06 07:37:01;;;;;;;4.03;2.97;;;17.90;99.90;;;;;;5065133;28;20075;-75
2023/06/06 07:39:26;;;;;;;3.95;3.08;;;18.10;99.90;;;;;;5045726;28;20103;-75
2023/06/06 07:41:52;;;;;;;3.97;3.08;;;18.20;99.90;;;;;;5067933;28;20028;-75
2023/06/06 07:44:18;;;;;;;3.65;3.30;;;18.10;99.90;;;;;;5061394;28;20036;-75
2023/06/06 07:46:44;;;;;;;3.17;2.88;;;18.20;99.90;;;;;;5059556;28;20423;-75
2023/06/06 07:49:10;;;;;;;3.83;2.75;;;18.00;99.90;;;;;;5063635;28;20086;-76
2023/06/06 07:51:35;;;;;;;5.57;3.20;;;17.90;99.90;;;;;;5066652;28;20388;-75
2023/06/06 07:54:01;;;;;;;3.70;2.60;;;18.00;99.90;;;;;;5061301;28;20029;-75
2023/06/06 07:56:30;;;;;;;4.32;3.08;;;18.20;99.90;;;;;;5062180;28;20060;-75
2023/06/06 07:58:57;;;;;;;3.80;2.95;;;18.60;99.90;;;;;;5058872;28;20560;-77
2023/06/06 08:01:24;;;;;;;3.28;2.97;;;19.00;99.90;;;;;;5059495;28;20061;-75
2023/06/06 08:03:50;;;;;;;3.35;3.05;;;19.00;99.90;;;;;;5061888;28;20112;-75
2023/06/06 08:06:20;;;;;;;3.72;2.72;;;19.10;99.90;;;;;;5071957;28;20033;-75
2023/06/06 08:08:48;;;;;;;5.32;3.15;;;19.00;99.90;;;;;;5065794;28;20036;-75
2023/06/06 08:11:14;;;;;;;3.90;3.35;;;19.20;99.90;;;;;;5067234;28;20028;-75
2023/06/06 08:13:40;;;;;;;5.00;3.55;;;19.20;99.90;;;;;;5070196;28;20396;-75
2023/06/06 08:16:05;;;;;;;3.83;3.25;;;19.10;99.90;;;;;;5059905;28;20041;-75
2023/06/06 08:18:31;;;;;;;3.78;3.05;;;19.10;99.90;;;;;;5065887;28;20108;-75
2023/06/06 08:20:57;;;;;;;3.10;2.80;;;19.30;99.90;;;;;;5067024;28;20021;-75
2023/06/06 08:23:25;;;;;;;3.13;2.83;;;19.60;99.90;;;;;;5068927;28;20032;-75
2023/06/06 08:25:57;;;;;;;4.10;3.25;;;19.80;99.90;;;;;;5069516;28;20563;-75
2023/06/06 08:28:23;;;;;;;3.35;2.92;;;20.10;99.90;;;;;;5065684;28;20040;-75
2023/06/06 08:30:51;;;;;;;4.28;3.10;;;20.30;99.90;;;;;;5070908;28;20060;-76
2023/06/06 08:33:17;;;;;;;3.30;3.00;;;20.30;99.90;;;;;;5065958;28;20033;-75
2023/06/06 08:35:43;;;;;;;4.43;2.80;;;20.40;99.90;;;;;;5069269;28;20055;-76
2023/06/06 08:38:08;;;;;;;3.20;2.80;;;20.50;99.90;;;;;;5068011;28;20069;-76
2023/06/06 08:40:34;;;;;;;4.53;3.35;;;20.70;99.90;;;;;;5074112;28;20024;-77
2023/06/06 08:43:01;;;;;;;3.58;2.78;;;20.90;99.90;;;;;;5071748;28;20037;-76
2023/06/06 08:45:26;;;;;;;3.63;2.85;;;21.00;99.90;;;;;;5068808;28;20050;-75
2023/06/06 08:47:54;;;;;;;4.50;3.17;;;21.10;99.90;;;;;;5056415;28;20116;-76
2023/06/06 08:50:21;;;;;;;3.10;2.80;;;21.00;99.90;;;;;;5067012;28;20458;-74
2023/06/06 08:52:48;;;;;;;3.97;2.67;;;20.80;99.90;;;;;;5072524;28;20479;-76
2023/06/06 08:55:14;;;;;;;3.10;2.73;;;20.60;99.90;;;;;;5069534;28;20055;-75
2023/06/06 08:57:43;;;;;;;3.50;2.97;;;20.40;99.90;;;;;;5067737;28;20075;-75
2023/06/06 09:00:11;;;;;;;3.05;2.75;;;20.40;99.90;;;;;;5068564;28;20024;-76
2023/06/06 09:02:41;;;;;;;;;;;20.80;99.90;;;;;;5067197;28;20040;-76
2023/06/06 09:05:08;;;;;;;3.95;3.03;;;21.20;99.90;;;;;;5065508;28;19905;-75
2023/06/06 09:07:34;;;;;;;3.97;2.85;;;21.20;99.90;;;;;;5073648;28;20043;-76
2023/06/06 09:10:00;;;;;;;3.25;2.90;;;21.10;99.90;;;;;;5070187;28;20029;-76
2023/06/06 09:12:25;;;;;;;2.88;2.63;;;21.10;99.90;;;;;;5071839;28;20032;-75
2023/06/06 09:14:52;;;;;;;4.35;2.97;;;21.20;99.90;;;;;;5064480;28;20048;-75
2023/06/06 09:17:17;;;;;;;4.53;2.88;;;20.80;99.90;;;;;;5066902;28;20320;-76
2023/06/06 09:19:46;;;;;;;3.65;2.92;;;21.00;99.90;;;;;;5069458;28;20024;-75
2023/06/06 09:22:11;;;;;;;4.38;2.70;;;21.20;99.90;;;;;;5069327;28;20059;-76
2023/06/06 09:24:43;;;;;;;3.47;3.17;;;21.10;99.90;;;;;;5071302;28;20024;-74
2023/06/06 09:27:27;;;;;;;4.80;2.70;;;21.40;99.90;;;;;;5067080;28;20041;-75
2023/06/06 09:29:53;;;;;;;3.38;2.70;;;21.40;99.90;;;;;;5064039;28;20448;-76
2023/06/06 09:32:29;;;;;;;4.35;3.00;;;20.90;99.90;;;;;;5068022;28;20040;-75
2023/06/06 09:34:59;;;;;;;4.78;3.05;;;20.50;99.90;;;;;;5064827;28;20032;-75
2023/06/06 09:37:27;;;;;;;3.83;2.90;;;20.60;99.90;;;;;;5069762;28;20495;-76
2023/06/06 09:40:15;;;;;;;6.28;2.80;;;21.00;99.90;;;;;;5063778;28;20037;-75
2023/06/06 09:42:48;;;;;;;2.75;2.47;;;21.00;99.90;;;;;;5066265;28;20063;-76
2023/06/06 09:45:19;;;;;;;4.55;2.67;;;21.10;99.90;;;;;;5066374;28;20119;-76
2023/06/06 09:47:47;;;;;;;3.55;3.13;;;21.30;99.90;;;;;;5071572;28;20032;-76
2023/06/06 09:50:14;;;;;;;3.38;2.75;;;21.40;99.90;;;;;;5069888;28;20673;-76
2023/06/06 09:52:40;;;;;;;3.05;2.75;;;21.60;99.90;;;;;;5064948;28;20036;-75
2023/06/06 09:55:08;;;;;;;4.78;3.00;;;21.60;99.90;;;;;;5072337;28;20078;-75
2023/06/06 09:57:39;;;;;;;3.25;2.50;;;21.60;99.90;;;;;;5068133;28;20036;-76
2023/06/06 10:00:10;;;;;;;3.45;3.08;;;21.80;99.90;;;;;;5058353;28;20028;-74
2023/06/06 10:02:45;;;;;;;3.45;2.80;;;21.90;99.90;;;;;;5064150;28;20091;-75
2023/06/06 10:05:15;;;;;;;5.68;2.50;;;21.70;99.90;;;;;;5067649;28;20083;-75
2023/06/06 10:07:46;;;;;;;3.63;2.90;;;21.70;99.90;;;;;;5065137;28;20039;-75
2023/06/06 10:10:20;;;;;;;4.28;3.00;;;21.70;99.90;;;;;;5067599;28;20069;-76
2023/06/06 10:12:47;;;;;;;4.20;2.63;;;21.70;99.90;;;;;;5079818;28;20080;-76
2023/06/06 10:15:13;;;;;;;4.63;3.10;;;21.50;99.90;;;;;;5065739;28;20373;-76
2023/06/06 10:17:41;;;;;;;5.63;2.80;;;21.50;99.90;;;;;;5069069;28;20060;-76
2023/06/06 10:20:15;;;;;;;3.72;2.60;;;21.60;99.90;;;;;;5071491;28;20479;-78
2023/06/06 10:22:41;;;;;;;2.70;2.50;;;21.70;99.90;;;;;;5070311;28;20064;-76
2023/06/06 10:25:12;;;;;;;4.03;2.60;;;21.80;99.90;;;;;;5064875;28;20097;-77
2023/06/06 10:27:54;;;;;;;3.72;2.72;;;21.90;99.90;;;;;;5053563;28;20025;-76
2023/06/06 10:30:48;;;;;;;4.80;2.78;;;21.60;99.90;;;;;;5066850;28;20051;-77
2023/06/06 10:33:32;;;;;;;3.17;2.63;;;21.90;99.90;;;;;;5071322;28;20032;-75
2023/06/06 10:36:02;;;;;;;4.18;2.75;;;22.10;99.90;;;;;;5063446;28;20433;-76
2023/06/06 10:38:28;;;;;;;3.47;3.03;;;21.90;99.90;;;;;;5070024;28;20514;-76
2023/06/06 10:40:55;;;;;;;4.93;2.90;;;21.80;99.90;;;;;;5061630;28;20024;-75
2023/06/06 10:43:42;;;;;;;3.63;3.20;;;21.70;99.90;;;;;;5065215;28;20040;-75
2023/06/06 10:46:08;;;;;;;3.97;3.00;;;21.10;99.90;;;;;;5065456;28;20050;-75
2023/06/06 10:48:48;;;;;;;4.32;2.95;;;20.90;99.90;;;;;;5049915;28;20278;-75
2023/06/06 10:51:23;;;;;;;3.25;2.65;;;21.20;99.90;;;;;;5066989;28;20178;-75
2023/06/06 10:54:21;;;;;;;3.42;2.50;;;21.60;99.90;;;;;;5063459;28;20039;-74
2023/06/06 10:56:52;;;;;;;4.22;2.50;;;21.90;99.90;;;;;;5069339;28;20040;-74
2023/06/06 10:59:22;;;;;;;3.60;2.60;;;22.40;99.90;;;;;;5070090;28;20029;-75
2023/06/06 11:01:48;;;;;;;4.20;2.90;;;22.80;99.90;;;;;;5064088;28;20476;-74
2023/06/06 11:04:26;;;;;;;3.15;2.72;;;22.80;99.90;;;;;;5062223;28;20043;-75
2023/06/06 11:06:58;;;;;;;5.95;2.83;;;22.70;99.90;;;;;;5066797;28;20059;-75
2023/06/06 11:09:28;;;;;;;3.38;2.47;;;22.50;99.90;;;;;;5062092;28;20025;-75
2023/06/06 11:12:15;;;;;;;3.10;2.80;;;21.90;99.90;;;;;;5059773;28;20040;-74
2023/06/06 11:15:22;;;;;;;;;;;;;;;;;;;;;
2023/06/06 11:17:58;;;;;;;4.53;2.60;;;22.10;99.90;;;;;;5063254;28;20765;-76
2023/06/06 11:20:40;;;;;;;9.93;3.25;;;22.50;99.90;;;;;;5063019;28;20025;-75
2023/06/06 11:23:08;;;;;;;3.53;2.88;;;22.90;99.90;;;;;;5066427;28;20087;-75
2023/06/06 11:25:35;;;;;;;;;;;23.00;99.90;;;;;;5061392;28;20086;-74
2023/06/06 11:28:01;;;;;;;3.53;2.80;;;22.80;99.90;;;;;;5065301;28;19913;-74
2023/06/06 11:30:35;;;;;;;2.65;2.38;;;22.40;99.90;;;;;;5070325;28;20032;-75
2023/06/06 11:33:01;;;;;;;3.17;2.53;;;21.90;99.90;;;;;;5068528;28;20079;-76
2023/06/06 11:35:32;;;;;;;3.63;2.42;;;21.50;99.90;;;;;;5071586;28;20040;-76
2023/06/06 11:37:58;;;;;;;3.53;2.50;;;21.50;99.90;;;;;;5070300;28;20044;-75
2023/06/06 11:40:26;;;;;;;3.40;2.72;;;22.10;99.90;;;;;;5075070;28;20029;-75
2023/06/06 11:42:52;;;;;;;2.80;2.47;;;22.70;99.90;;;;;;5066463;28;20543;-76
2023/06/06 11:45:19;;;;;;;3.38;2.40;;;23.20;99.90;;;;;;5073591;28;20048;-76
2023/06/06 11:47:46;;;;;;;2.85;2.58;;;23.10;99.90;;;;;;5068643;28;20407;-75
2023/06/06 11:50:12;;;;;;;2.88;2.58;;;21.80;99.90;;;;;;5057933;28;20582;-74
2023/06/06 11:52:48;;;;;;;3.75;2.35;;;21.50;99.90;;;;;;5074598;28;20076;-75
2023/06/06 11:55:15;;;;;;;2.88;2.50;;;21.70;99.90;;;;;;5066321;28;20083;-75
2023/06/06 11:57:41;;;;;;;3.97;2.42;;;22.00;99.90;;;;;;5059205;28;20430;-75
2023/06/06 12:00:14;;;;;;;4.40;2.70;;;22.40;99.90;;;;;;5069109;28;20033;-75
2023/06/06 12:02:40;;;;;;;4.75;2.60;;;22.40;99.90;;;;;;5066212;28;20048;-75
2023/06/06 12:05:18;;;;;;;6.40;2.75;;;22.00;99.90;;;;;;5074616;28;20027;-75
2023/06/06 12:07:43;;;;;;;;;;;22.20;99.90;;;;;;5071656;28;20039;-75
2023/06/06 12:10:09;;;;;;;4.45;3.10;;;22.00;99.90;;;;;;5071124;28;19917;-76
2023/06/06 12:12:45;;;;;;;2.42;2.22;;;21.60;99.90;;;;;;5074439;28;20017;-76
2023/06/06 12:15:10;;;;;;;3.38;2.72;;;21.20;99.90;;;;;;5076319;28;20028;-75
2023/06/06 12:17:36;;;;;;;3.30;2.50;;;21.40;99.90;;;;;;5067467;28;20054;-78
2023/06/06 12:20:04;;;;;;;4.38;2.30;;;21.30;99.90;;;;;;5073630;28;20083;-78
2023/06/06 12:22:35;;;;;;;2.90;2.30;;;21.40;99.90;;;;;;5055186;28;20483;-76
2023/06/06 12:25:02;;;;;;;3.33;2.45;;;21.70;99.90;;;;;;5073385;28;20082;-76
2023/06/06 12:27:36;;;;;;;5.05;2.80;;;21.90;99.90;;;;;;5066916;28;20028;-76
2023/06/06 12:30:03;;;;;;;2.50;2.30;;;21.30;99.90;;;;;;5079093;28;20037;-76
2023/06/06 12:32:31;;;;;;;3.72;2.70;;;20.90;99.90;;;;;;5070800;28;20131;-76
2023/06/06 12:35:01;;;;;;;3.15;2.50;;;21.00;99.90;;;;;;5067868;28;20486;-75
2023/06/06 12:37:41;;;;;;;5.03;2.63;;;21.70;99.90;;;;;;5073402;28;20045;-75
2023/06/06 12:40:33;;;;;;;2.67;2.30;;;22.10;99.90;;;;;;5078515;28;20028;-76
2023/06/06 12:43:00;;;;;;;3.55;2.40;;;22.40;99.90;;;;;;5075127;28;20067;-77
2023/06/06 12:45:27;;;;;;;2.58;2.38;;;22.40;99.90;;;;;;5063076;28;20090;-76
2023/06/06 12:47:56;;;;;;;3.38;2.13;;;22.30;99.90;;;;;;5074335;28;20040;-76
2023/06/06 12:50:23;;;;;;;2.78;2.20;;;22.20;99.90;;;;;;5074557;28;20043;-75
2023/06/06 12:52:50;;;;;;;2.40;2.20;;;21.80;99.90;;;;;;5079311;28;20025;-75